Time;durP1;ratioP1;P1;durP2;ratioP2;P2;SDS_P1;SDS_P2;PMS_P1;PMS_P2;Temp;Humidity;BMP_temperature;BMP_pressure;BME280_temperature;BME280_humidity;BME280_pressure;Samples;Min_cycle;Max_cycle;Signal;HPM_P1;HPM_P2
2021/08/28 00:01:39;;;;;;;3.93;2.60;;;20.80;59.60;;;;;;5019449;28;20760;-46
2021/08/28 00:04:04;;;;;;;4.23;3.40;;;20.80;59.40;;;;;;5014793;28;20197;-50
2021/08/28 00:06:30;;;;;;;4.03;3.10;;;20.90;59.30;;;;;;5016062;28;20272;-50
2021/08/28 00:08:56;;;;;;;4.50;3.33;;;20.90;59.80;;;;;;5040550;28;20284;-50
2021/08/28 00:11:21;;;;;;;3.10;2.80;;;21.00;59.00;;;;;;5020241;28;20646;-50
2021/08/28 00:13:47;;;;;;;3.77;3.40;;;21.20;58.90;;;;;;5025894;28;20201;-47
2021/08/28 00:16:13;;;;;;;3.60;3.30;;;21.20;58.50;;;;;;5022468;28;20193;-48
2021/08/28 00:18:38;;;;;;;3.17;2.87;;;21.30;58.40;;;;;;5024976;28;20261;-49
2021/08/28 00:21:08;;;;;;;4.83;3.40;;;21.30;58.30;;;;;;5019030;28;20239;-50
2021/08/28 00:23:33;;;;;;;3.20;2.90;;;21.20;58.40;;;;;;5020382;28;21348;-50
2021/08/28 00:25:59;;;;;;;4.73;2.80;;;21.10;58.50;;;;;;5020710;28;20432;-49
2021/08/28 00:28:25;;;;;;;5.27;3.50;;;21.10;58.60;;;;;;5023762;28;20279;-48
2021/08/28 00:30:50;;;;;;;2.70;2.50;;;21.20;58.80;;;;;;5023922;28;20193;-47
2021/08/28 00:33:17;;;;;;;3.30;3.00;;;21.10;58.80;;;;;;5014327;28;20213;-50
2021/08/28 00:35:43;;;;;;;3.47;3.17;;;21.20;59.00;;;;;;5020405;28;20205;-46
2021/08/28 00:38:10;;;;;;;4.33;3.23;;;21.30;58.60;;;;;;5020605;28;20853;-47
2021/08/28 00:40:39;;;;;;;3.80;3.43;;;21.40;58.40;;;;;;5016992;28;20579;-51
2021/08/28 00:43:05;;;;;;;3.90;3.50;;;21.40;58.20;;;;;;5016277;28;20463;-50
2021/08/28 00:45:35;;;;;;;4.63;3.83;;;21.40;58.20;;;;;;5024283;28;20432;-47
2021/08/28 00:48:10;;;;;;;7.27;3.70;;;21.40;58.30;;;;;;5023453;28;20445;-47
2021/08/28 00:50:37;;;;;;;4.77;3.60;;;21.50;58.40;;;;;;5013549;28;20451;-51
2021/08/28 00:53:05;;;;;;;3.77;3.43;;;21.40;58.20;;;;;;5018403;28;20444;-47
2021/08/28 00:55:31;;;;;;;4.40;3.53;;;21.20;58.20;;;;;;5019931;28;20441;-48
2021/08/28 00:57:57;;;;;;;3.47;3.13;;;21.10;58.50;;;;;;5020209;28;20453;-46
2021/08/28 01:00:24;;;;;;;8.77;3.57;;;21.20;58.70;;;;;;5015174;28;20496;-49
2021/08/28 01:02:51;;;;;;;3.20;2.90;;;21.30;58.70;;;;;;5022950;28;20433;-46
2021/08/28 01:05:29;;;;;;;3.03;2.83;;;21.10;58.60;;;;;;5013618;28;20564;-46
2021/08/28 01:08:14;;;;;;;3.00;2.60;;;21.00;58.90;;;;;;5020294;28;21023;-46
2021/08/28 01:10:46;;;;;;;3.30;3.00;;;21.10;59.10;;;;;;5013170;28;20453;-46
2021/08/28 01:13:14;;;;;;;2.80;2.60;;;21.10;59.00;;;;;;5018413;28;20440;-46
2021/08/28 01:15:40;;;;;;;3.27;2.57;;;21.00;59.00;;;;;;5016611;28;20453;-47
2021/08/28 01:18:11;;;;;;;4.83;2.43;;;20.90;59.00;;;;;;5023368;28;20626;-46
2021/08/28 01:20:46;;;;;;;2.73;2.40;;;20.90;59.10;;;;;;5024407;28;20559;-46
2021/08/28 01:23:12;;;;;;;4.47;2.83;;;20.90;59.30;;;;;;5014027;28;20517;-50
2021/08/28 01:25:40;;;;;;;3.40;2.53;;;20.90;59.20;;;;;;5015632;28;20510;-47
2021/08/28 01:28:10;;;;;;;3.30;3.00;;;20.90;59.40;;;;;;5018337;28;20455;-48
2021/08/28 01:30:38;;;;;;;4.00;2.63;;;20.80;59.30;;;;;;5024471;28;20810;-47
2021/08/28 01:33:05;;;;;;;3.83;3.00;;;20.90;59.30;;;;;;5021243;28;20768;-47
2021/08/28 01:35:31;;;;;;;4.17;2.97;;;20.90;59.20;;;;;;5011852;28;20528;-46
2021/08/28 01:37:58;;;;;;;4.60;2.70;;;21.00;59.30;;;;;;5014556;28;20491;-47
2021/08/28 01:40:27;;;;;;;3.57;2.97;;;21.00;59.30;;;;;;5023132;28;20967;-46
2021/08/28 01:42:53;;;;;;;5.43;3.20;;;21.00;59.30;;;;;;5015020;28;20459;-46
2021/08/28 01:45:24;;;;;;;4.20;3.33;;;20.90;59.30;;;;;;5014942;28;20869;-48
2021/08/28 01:47:51;;;;;;;3.47;2.53;;;20.90;59.10;;;;;;5017267;28;20444;-46
2021/08/28 01:50:21;;;;;;;4.90;2.73;;;21.00;59.10;;;;;;5020688;28;20448;-47
2021/08/28 01:52:48;;;;;;;3.37;3.07;;;21.10;59.10;;;;;;5015803;28;20445;-49
2021/08/28 01:55:13;;;;;;;3.30;3.10;;;21.00;58.90;;;;;;5024747;28;20928;-47
2021/08/28 01:57:39;;;;;;;3.20;2.87;;;21.00;58.80;;;;;;5018939;28;20764;-47
2021/08/28 02:00:06;;;;;;;4.03;3.63;;;21.00;58.80;;;;;;5024276;28;20221;-46
2021/08/28 02:02:32;;;;;;;3.23;2.93;;;21.00;58.90;;;;;;5017991;28;20194;-46
2021/08/28 02:04:59;;;;;;;2.93;2.73;;;20.90;58.90;;;;;;5022817;28;20841;-47
2021/08/28 02:07:52;;;;;;;3.97;3.60;;;21.00;58.90;;;;;;5017279;28;20462;-46
2021/08/28 02:10:26;;;;;;;4.90;3.10;;;21.00;58.70;;;;;;5019517;28;20444;-47
2021/08/28 02:12:56;;;;;;;5.03;4.63;;;21.00;58.60;;;;;;5023346;28;20452;-46
2021/08/28 02:15:42;;;;;;;3.30;3.00;;;21.00;58.70;;;;;;5024464;28;20456;-46
2021/08/28 02:18:34;;;;;;;3.50;3.20;;;21.10;58.80;;;;;;5021584;28;20476;-50
2021/08/28 02:21:03;;;;;;;4.30;3.50;;;21.10;58.60;;;;;;5019028;28;20490;-50
2021/08/28 02:23:53;;;;;;;4.50;4.00;;;21.10;58.50;;;;;;5015510;28;20444;-49
2021/08/28 02:26:24;;;;;;;4.60;4.10;;;21.10;58.40;;;;;;5020604;28;20518;-50
2021/08/28 02:28:58;;;;;;;5.83;4.63;;;21.00;58.70;;;;;;5021660;28;20448;-50
2021/08/28 02:31:28;;;;;;;4.90;3.90;;;21.00;58.70;;;;;;5018883;28;20447;-51
2021/08/28 02:33:55;;;;;;;5.23;4.33;;;21.00;58.70;;;;;;5013445;28;20455;-48
2021/08/28 02:36:21;;;;;;;5.33;4.83;;;21.00;58.80;;;;;;5029030;28;20435;-49
2021/08/28 02:38:49;;;;;;;6.13;5.10;;;21.00;58.80;;;;;;5020322;28;20440;-47
2021/08/28 02:41:16;;;;;;;4.90;4.50;;;21.00;58.70;;;;;;5029169;28;20275;-50
2021/08/28 02:43:43;;;;;;;5.10;4.53;;;21.00;58.80;;;;;;5019798;28;20440;-46
2021/08/28 02:46:10;;;;;;;5.27;4.77;;;21.00;58.70;;;;;;5023342;28;20825;-51
2021/08/28 02:48:38;;;;;;;5.27;4.70;;;21.00;58.60;;;;;;5026944;28;20436;-47
2021/08/28 02:51:08;;;;;;;5.00;4.60;;;21.00;58.60;;;;;;5022861;28;20502;-47
2021/08/28 02:53:34;;;;;;;5.40;4.90;;;20.90;58.70;;;;;;5020090;28;20456;-49
2021/08/28 02:56:01;;;;;;;5.93;5.43;;;20.90;58.90;;;;;;5021521;28;20440;-47
2021/08/28 02:58:27;;;;;;;5.17;4.67;;;20.80;58.90;;;;;;5019858;28;20536;-48
2021/08/28 03:00:54;;;;;;;6.67;5.37;;;20.80;59.00;;;;;;5025605;28;20575;-49
2021/08/28 03:03:19;;;;;;;5.53;4.90;;;20.90;58.90;;;;;;5019328;28;20672;-50
2021/08/28 03:05:48;;;;;;;6.47;5.87;;;21.00;58.80;;;;;;5022059;28;20439;-46
2021/08/28 03:08:16;;;;;;;5.47;4.90;;;21.00;58.80;;;;;;5021295;28;20189;-48
2021/08/28 03:10:50;;;;;;;7.97;6.00;;;21.00;58.90;;;;;;5015715;28;21154;-49
2021/08/28 03:13:18;;;;;;;7.73;5.47;;;21.00;58.60;;;;;;5023078;28;20444;-46
2021/08/28 03:15:45;;;;;;;5.23;4.83;;;21.10;58.90;;;;;;5028000;28;21290;-47
2021/08/28 03:18:13;;;;;;;5.80;5.20;;;21.00;58.80;;;;;;5027544;28;20488;-45
2021/08/28 03:20:42;;;;;;;6.07;5.47;;;21.00;58.90;;;;;;5020471;28;20488;-46
2021/08/28 03:23:09;;;;;;;6.50;5.80;;;21.00;58.70;;;;;;5019931;28;20463;-48
2021/08/28 03:25:37;;;;;;;8.03;5.70;;;21.00;58.70;;;;;;5029360;28;20514;-49
2021/08/28 03:28:03;;;;;;;10.00;5.83;;;20.90;59.00;;;;;;5013158;28;20443;-47
2021/08/28 03:30:29;;;;;;;7.33;6.10;;;20.90;59.10;;;;;;5017586;28;20927;-48
2021/08/28 03:32:55;;;;;;;7.63;6.93;;;20.90;59.30;;;;;;5015741;28;20955;-47
2021/08/28 03:35:21;;;;;;;7.27;6.47;;;20.80;59.30;;;;;;5017542;28;20252;-47
2021/08/28 03:37:47;;;;;;;7.23;6.63;;;20.70;59.50;;;;;;5018600;28;20446;-47
2021/08/28 03:40:13;;;;;;;6.70;6.07;;;20.80;59.50;;;;;;5020594;28;20571;-46
2021/08/28 03:42:40;;;;;;;7.87;6.37;;;20.70;59.50;;;;;;5019448;28;20494;-46
2021/08/28 03:45:07;;;;;;;7.00;6.37;;;20.70;59.50;;;;;;5014969;28;20520;-48
2021/08/28 03:47:36;;;;;;;8.20;7.23;;;20.80;59.70;;;;;;5025789;28;20510;-46
2021/08/28 03:50:02;;;;;;;7.70;7.00;;;20.70;59.50;;;;;;5017682;28;20452;-47
2021/08/28 03:52:28;;;;;;;7.03;6.43;;;20.80;59.50;;;;;;5016989;28;20474;-45
2021/08/28 03:54:53;;;;;;;7.80;7.20;;;20.80;59.50;;;;;;5018278;28;20436;-46
2021/08/28 03:57:19;;;;;;;9.30;6.47;;;20.80;59.50;;;;;;5020219;28;20196;-48
2021/08/28 03:59:45;;;;;;;7.50;6.17;;;20.90;59.50;;;;;;5021517;28;20189;-50
2021/08/28 04:02:10;;;;;;;7.17;6.40;;;21.00;59.40;;;;;;5026282;28;20193;-46
2021/08/28 04:04:36;;;;;;;8.40;7.70;;;21.00;59.10;;;;;;5018091;28;20197;-47
2021/08/28 04:07:01;;;;;;;7.40;6.70;;;21.00;58.90;;;;;;5024208;28;20272;-47
2021/08/28 04:09:27;;;;;;;7.63;6.93;;;21.00;58.80;;;;;;5017308;28;20225;-46
2021/08/28 04:11:52;;;;;;;7.63;6.87;;;21.10;59.00;;;;;;5017891;28;20598;-48
2021/08/28 04:14:18;;;;;;;8.40;7.27;;;21.10;58.80;;;;;;5020454;28;20190;-47
2021/08/28 04:16:43;;;;;;;9.57;8.70;;;21.10;58.80;;;;;;5016141;28;20206;-46
2021/08/28 04:19:09;;;;;;;8.27;7.47;;;21.10;58.70;;;;;;5015686;28;20241;-45
2021/08/28 04:21:35;;;;;;;8.27;7.47;;;21.00;58.70;;;;;;5015085;28;20692;-45
2021/08/28 04:24:00;;;;;;;8.20;7.40;;;20.90;59.00;;;;;;5016087;28;20277;-47
2021/08/28 04:26:26;;;;;;;8.63;7.80;;;20.90;59.20;;;;;;5022714;28;20280;-48
2021/08/28 04:28:55;;;;;;;8.70;7.90;;;20.80;59.30;;;;;;5012026;28;20704;-45
2021/08/28 04:31:20;;;;;;;10.63;8.30;;;20.80;59.50;;;;;;5017215;28;20248;-47
2021/08/28 04:33:46;;;;;;;11.83;8.07;;;20.70;59.70;;;;;;5018850;28;20444;-46
2021/08/28 04:36:11;;;;;;;11.27;9.90;;;20.70;59.90;;;;;;5021826;28;20560;-49
2021/08/28 04:38:37;;;;;;;9.10;8.30;;;20.60;60.00;;;;;;5027029;28;20200;-47
2021/08/28 04:41:02;;;;;;;13.40;8.70;;;20.50;60.10;;;;;;5020313;28;20697;-47
2021/08/28 04:43:28;;;;;;;10.77;8.40;;;20.50;60.30;;;;;;5025943;28;20237;-49
2021/08/28 04:45:53;;;;;;;10.80;9.70;;;20.50;60.40;;;;;;5017577;28;20248;-46
2021/08/28 04:48:19;;;;;;;12.30;9.70;;;20.50;60.60;;;;;;5013622;28;20197;-46
2021/08/28 04:50:45;;;;;;;9.83;8.77;;;20.40;60.80;;;;;;5013020;28;20706;-46
2021/08/28 04:53:10;;;;;;;10.10;9.20;;;20.40;61.00;;;;;;5018591;28;20221;-45
2021/08/28 04:55:36;;;;;;;10.63;9.43;;;20.10;61.60;;;;;;5023978;28;20668;-46
2021/08/28 04:58:01;;;;;;;11.23;10.07;;;20.10;61.90;;;;;;5022975;28;20201;-49
2021/08/28 05:00:28;;;;;;;11.00;9.90;;;20.00;62.20;;;;;;5019495;28;20232;-46
2021/08/28 05:02:53;;;;;;;10.07;9.17;;;20.00;62.30;;;;;;5019885;28;20209;-48
2021/08/28 05:05:19;;;;;;;12.67;9.30;;;20.10;62.30;;;;;;5018171;28;20539;-46
2021/08/28 05:07:44;;;;;;;14.17;11.07;;;20.10;62.50;;;;;;5018200;28;20206;-50
2021/08/28 05:10:10;;;;;;;16.17;10.93;;;20.10;63.30;;;;;;5020177;28;20229;-49
2021/08/28 05:12:36;;;;;;;12.63;10.40;;;20.10;63.60;;;;;;5015354;28;20197;-49
2021/08/28 05:15:02;;;;;;;12.80;10.23;;;20.10;64.00;;;;;;5017109;28;20197;-49
2021/08/28 05:17:28;;;;;;;12.77;11.57;;;20.10;64.30;;;;;;5018857;28;20200;-49
2021/08/28 05:19:54;;;;;;;13.00;11.80;;;20.00;65.40;;;;;;5018140;28;20448;-49
2021/08/28 05:22:20;;;;;;;14.27;12.70;;;20.00;64.60;;;;;;5015448;28;20452;-50
2021/08/28 05:24:46;;;;;;;14.00;10.93;;;20.00;64.80;;;;;;5018536;28;20227;-50
2021/08/28 05:27:11;;;;;;;12.80;11.30;;;20.00;65.00;;;;;;5018538;28;20194;-49
2021/08/28 05:29:37;;;;;;;12.00;10.77;;;20.00;65.10;;;;;;5011902;28;20202;-46
2021/08/28 05:32:03;;;;;;;14.23;11.30;;;20.00;64.90;;;;;;5014949;28;20193;-48
2021/08/28 05:34:28;;;;;;;12.97;11.73;;;20.00;67.10;;;;;;5018200;28;20200;-51
2021/08/28 05:36:54;;;;;;;14.63;12.37;;;20.10;65.90;;;;;;5017130;28;20773;-50
2021/08/28 05:39:20;;;;;;;13.13;11.80;;;20.10;65.20;;;;;;5012730;28;20196;-50
2021/08/28 05:41:45;;;;;;;14.57;11.00;;;20.20;65.30;;;;;;5012727;28;20608;-47
2021/08/28 05:44:11;;;;;;;12.73;11.43;;;20.20;65.00;;;;;;5014525;28;20189;-47
2021/08/28 05:46:37;;;;;;;13.07;11.73;;;20.20;65.10;;;;;;5013039;28;20201;-50
2021/08/28 05:49:03;;;;;;;14.67;11.80;;;20.20;65.10;;;;;;5018909;28;20486;-51
2021/08/28 05:51:28;;;;;;;12.43;11.13;;;20.20;65.30;;;;;;5026269;28;20196;-45
2021/08/28 05:53:54;;;;;;;13.40;11.20;;;20.30;65.40;;;;;;5025330;28;20189;-46
2021/08/28 05:56:19;;;;;;;12.63;11.40;;;20.30;65.30;;;;;;5024954;28;20189;-46
2021/08/28 05:58:45;;;;;;;15.03;12.57;;;20.30;65.20;;;;;;5028267;28;20209;-50
2021/08/28 06:01:10;;;;;;;13.70;12.37;;;20.30;65.40;;;;;;5021701;28;20235;-46
2021/08/28 06:03:36;;;;;;;13.50;12.00;;;20.30;65.40;;;;;;5012805;28;20265;-48
2021/08/28 06:06:02;;;;;;;12.60;11.40;;;20.40;65.40;;;;;;5017613;28;20201;-47
2021/08/28 06:08:27;;;;;;;13.10;11.90;;;20.30;65.40;;;;;;5016250;28;20678;-46
2021/08/28 06:10:53;;;;;;;14.70;10.87;;;20.10;65.30;;;;;;5028917;28;20281;-48
2021/08/28 06:13:18;;;;;;;14.87;12.10;;;20.00;66.10;;;;;;5030069;28;20227;-49
2021/08/28 06:15:44;;;;;;;13.37;12.07;;;20.00;66.00;;;;;;5020779;28;20193;-49
2021/08/28 06:18:09;;;;;;;13.90;12.60;;;20.10;66.10;;;;;;5025417;28;20241;-46
2021/08/28 06:20:35;;;;;;;12.73;11.63;;;20.20;66.00;;;;;;5027545;28;20233;-47
2021/08/28 06:23:01;;;;;;;13.27;11.97;;;20.20;65.80;;;;;;5033701;28;20196;-47
2021/08/28 06:25:26;;;;;;;13.33;12.03;;;20.30;65.50;;;;;;5019543;28;20511;-49
2021/08/28 06:27:52;;;;;;;12.30;11.20;;;20.20;65.40;;;;;;5024699;28;20280;-46
2021/08/28 06:30:17;;;;;;;12.50;11.20;;;20.30;65.40;;;;;;5019043;28;20225;-49
2021/08/28 06:32:43;;;;;;;12.13;10.97;;;20.20;65.40;;;;;;5022985;28;20190;-47
2021/08/28 06:35:09;;;;;;;12.70;11.50;;;20.20;65.10;;;;;;5021912;28;20197;-50
2021/08/28 06:37:34;;;;;;;11.97;10.77;;;20.30;65.10;;;;;;5021008;28;20270;-49
2021/08/28 06:40:00;;;;;;;11.23;10.17;;;20.40;65.20;;;;;;5027849;28;20680;-49
2021/08/28 06:42:26;;;;;;;10.50;9.33;;;20.40;65.10;;;;;;5031638;28;20201;-49
2021/08/28 06:44:51;;;;;;;10.53;9.70;;;20.50;65.20;;;;;;5025589;28;20250;-49
2021/08/28 06:47:17;;;;;;;10.00;9.10;;;20.50;64.60;;;;;;5023744;28;20197;-50
2021/08/28 06:49:42;;;;;;;8.97;8.10;;;20.60;64.50;;;;;;5033341;28;20228;-49
2021/08/28 06:52:08;;;;;;;8.80;7.90;;;20.60;64.10;;;;;;5023645;28;20962;-50
2021/08/28 06:54:34;;;;;;;9.30;8.40;;;20.40;62.90;;;;;;5029069;28;20193;-50
2021/08/28 06:56:59;;;;;;;10.07;9.17;;;20.40;63.30;;;;;;5024578;28;20201;-50
2021/08/28 06:59:25;;;;;;;10.50;8.00;;;20.50;63.90;;;;;;5032870;28;20274;-50
2021/08/28 07:01:51;;;;;;;8.20;7.10;;;20.70;63.80;;;;;;5035234;28;20251;-50
2021/08/28 07:04:16;;;;;;;6.13;5.53;;;20.70;63.60;;;;;;5026212;28;20629;-51
2021/08/28 07:06:42;;;;;;;6.40;5.80;;;20.80;63.20;;;;;;5026563;28;20312;-50
2021/08/28 07:09:07;;;;;;;5.73;5.27;;;20.80;62.20;;;;;;5032682;28;20201;-50
2021/08/28 07:11:33;;;;;;;5.80;5.20;;;20.80;61.80;;;;;;5033181;28;20196;-50
2021/08/28 07:13:59;;;;;;;6.73;5.10;;;21.00;61.70;;;;;;5033284;28;20207;-49
2021/08/28 07:16:25;;;;;;;5.57;4.80;;;21.10;61.60;;;;;;5032016;28;20200;-50
2021/08/28 07:18:51;;;;;;;6.40;5.87;;;21.20;60.90;;;;;;5032875;28;20983;-50
2021/08/28 07:21:18;;;;;;;5.60;5.03;;;21.30;60.70;;;;;;5033134;28;20483;-50
2021/08/28 07:23:44;;;;;;;5.07;4.57;;;21.20;59.60;;;;;;5033628;28;20947;-50
2021/08/28 07:26:10;;;;;;;4.87;4.47;;;21.10;59.60;;;;;;5034042;28;20646;-49
2021/08/28 07:28:35;;;;;;;4.77;4.43;;;21.10;58.90;;;;;;5025076;28;20475;-51
2021/08/28 07:31:02;;;;;;;4.77;4.37;;;21.00;59.70;;;;;;5021812;28;20495;-50
2021/08/28 07:33:28;;;;;;;5.50;4.77;;;21.00;59.50;;;;;;5033391;28;20196;-50
2021/08/28 07:35:54;;;;;;;4.90;4.50;;;21.10;59.20;;;;;;5033836;28;20482;-48
2021/08/28 07:38:20;;;;;;;6.57;6.07;;;21.00;59.30;;;;;;5024994;28;20948;-50
2021/08/28 07:40:46;;;;;;;4.93;4.40;;;21.00;59.50;;;;;;5025671;28;20308;-49
2021/08/28 07:43:11;;;;;;;4.73;4.33;;;21.10;59.70;;;;;;5040453;28;20193;-50
2021/08/28 07:45:37;;;;;;;6.97;4.50;;;21.10;59.60;;;;;;5053751;28;20193;-51
2021/08/28 07:48:03;;;;;;;4.90;4.47;;;21.10;59.70;;;;;;5049002;28;20192;-50
2021/08/28 07:50:28;;;;;;;4.30;3.90;;;21.00;59.30;;;;;;5033316;28;20197;-49
2021/08/28 07:52:54;;;;;;;4.97;4.57;;;21.00;59.30;;;;;;5030981;28;20692;-48
2021/08/28 07:55:20;;;;;;;4.40;4.10;;;21.10;59.40;;;;;;5032104;28;20251;-50
2021/08/28 07:57:45;;;;;;;5.03;4.63;;;21.10;59.60;;;;;;5032595;28;20216;-50
2021/08/28 08:00:12;;;;;;;4.70;4.30;;;21.10;59.40;;;;;;5031516;28;20684;-50
2021/08/28 08:02:38;;;;;;;8.40;4.67;;;21.10;59.50;;;;;;5032754;28;20196;-50
2021/08/28 08:05:04;;;;;;;5.13;4.63;;;21.20;59.00;;;;;;5031523;28;20507;-51
2021/08/28 08:07:30;;;;;;;4.60;3.80;;;21.20;58.90;;;;;;5032276;28;20605;-50
2021/08/28 08:09:56;;;;;;;4.80;4.40;;;21.20;59.10;;;;;;5030451;28;20440;-50
2021/08/28 08:12:22;;;;;;;4.43;4.07;;;21.30;59.00;;;;;;5024139;28;20649;-51
2021/08/28 08:14:48;;;;;;;4.00;3.70;;;21.40;59.50;;;;;;5018958;28;20263;-51
2021/08/28 08:17:15;;;;;;;4.30;4.00;;;21.60;59.20;;;;;;5032032;28;20432;-50
2021/08/28 08:19:41;;;;;;;3.73;3.43;;;21.60;58.40;;;;;;5033100;28;20189;-49
2021/08/28 08:22:07;;;;;;;3.87;3.57;;;21.70;58.70;;;;;;5030953;28;20464;-50
2021/08/28 08:24:33;;;;;;;3.20;3.00;;;21.70;57.60;;;;;;5030790;28;20460;-51
2021/08/28 08:26:58;;;;;;;3.40;3.10;;;21.70;57.80;;;;;;5032269;28;20440;-49
2021/08/28 08:29:24;;;;;;;3.60;3.30;;;21.80;57.40;;;;;;5032652;28;20228;-51
2021/08/28 08:31:53;;;;;;;3.53;3.23;;;21.80;57.30;;;;;;5027960;28;20193;-50
2021/08/28 08:34:22;;;;;;;3.00;2.80;;;21.80;56.70;;;;;;5032676;28;20200;-50
2021/08/28 08:36:48;;;;;;;3.17;2.87;;;21.70;57.20;;;;;;5020853;28;20435;-50
2021/08/28 08:39:14;;;;;;;3.00;2.80;;;21.80;57.20;;;;;;5026300;28;20563;-50
2021/08/28 08:41:43;;;;;;;6.70;3.20;;;21.80;57.10;;;;;;5014295;28;20571;-49
2021/08/28 08:44:08;;;;;;;2.70;2.50;;;21.80;56.60;;;;;;5028165;28;20181;-50
2021/08/28 08:46:36;;;;;;;2.87;2.50;;;21.90;56.70;;;;;;5032490;28;20479;-49
2021/08/28 08:49:03;;;;;;;2.77;2.53;;;21.90;56.70;;;;;;5023988;28;20210;-50
2021/08/28 08:51:30;;;;;;;2.93;2.73;;;22.00;56.60;;;;;;5032651;28;20443;-50
2021/08/28 08:53:56;;;;;;;2.60;2.40;;;21.90;56.10;;;;;;5031445;28;20514;-51
2021/08/28 08:56:22;;;;;;;3.43;3.23;;;22.00;56.40;;;;;;5031399;28;20420;-50
2021/08/28 08:58:50;;;;;;;2.30;2.10;;;22.00;56.60;;;;;;5027194;28;20440;-50
2021/08/28 09:01:16;;;;;;;2.37;2.17;;;22.10;56.70;;;;;;5032506;28;20874;-50
2021/08/28 09:03:41;;;;;;;2.60;2.40;;;22.00;55.60;;;;;;5031418;28;20515;-47
2021/08/28 09:06:07;;;;;;;2.53;2.33;;;21.90;55.10;;;;;;5032258;28;20713;-48
2021/08/28 09:08:33;;;;;;;2.40;2.30;;;21.90;55.30;;;;;;5031109;28;20224;-47
2021/08/28 09:10:58;;;;;;;2.53;2.33;;;21.90;56.10;;;;;;5019469;28;21000;-46
2021/08/28 09:13:24;;;;;;;2.57;2.37;;;22.10;56.00;;;;;;5019589;28;20208;-50
2021/08/28 09:15:54;;;;;;;3.40;3.20;;;22.10;55.70;;;;;;5018198;28;20201;-49
2021/08/28 09:18:20;;;;;;;2.33;2.23;;;22.10;55.60;;;;;;5018528;28;20229;-50
2021/08/28 09:20:45;;;;;;;2.87;2.60;;;22.20;55.30;;;;;;5030228;28;20849;-49
2021/08/28 09:23:14;;;;;;;2.93;2.73;;;22.30;55.20;;;;;;5026127;28;20206;-48
2021/08/28 09:25:42;;;;;;;2.30;1.90;;;22.20;55.30;;;;;;5024526;28;20280;-50
2021/08/28 09:28:08;;;;;;;2.70;2.50;;;22.20;55.40;;;;;;5023355;28;20849;-48
2021/08/28 09:30:43;;;;;;;2.60;2.40;;;22.10;55.60;;;;;;5023880;28;20439;-49
2021/08/28 09:33:14;;;;;;;2.50;2.30;;;21.90;55.50;;;;;;5018742;28;20450;-47
2021/08/28 09:35:41;;;;;;;3.73;2.40;;;21.60;56.30;;;;;;5022471;28;20428;-50
2021/08/28 09:38:09;;;;;;;2.43;2.23;;;21.70;56.90;;;;;;5013722;28;21304;-50
2021/08/28 09:40:42;;;;;;;2.30;2.20;;;21.70;56.90;;;;;;5020994;28;20511;-50
2021/08/28 09:43:13;;;;;;;2.40;2.30;;;21.60;57.20;;;;;;5026634;28;20432;-47
2021/08/28 09:45:39;;;;;;;3.13;2.83;;;21.70;57.50;;;;;;5027359;28;20449;-51
2021/08/28 09:48:10;;;;;;;3.90;2.40;;;21.70;58.10;;;;;;5026875;28;20425;-46
2021/08/28 09:50:41;;;;;;;2.87;1.90;;;21.60;58.30;;;;;;5022985;28;20448;-51
2021/08/28 09:53:12;;;;;;;2.50;2.30;;;21.50;58.10;;;;;;5020291;28;20450;-48
2021/08/28 09:55:40;;;;;;;1.90;1.80;;;21.70;58.30;;;;;;5018758;28;20476;-46
2021/08/28 09:58:07;;;;;;;1.63;1.53;;;21.80;58.50;;;;;;5023148;28;20505;-50
2021/08/28 10:00:40;;;;;;;2.10;2.00;;;21.80;58.00;;;;;;5018852;28;20527;-48
2021/08/28 10:03:06;;;;;;;3.13;1.97;;;21.80;58.20;;;;;;5019936;28;20520;-50
2021/08/28 10:05:34;;;;;;;2.40;2.20;;;21.80;58.20;;;;;;5020765;28;20433;-51
2021/08/28 10:08:03;;;;;;;3.10;2.63;;;21.80;58.40;;;;;;5036989;28;20435;-50
2021/08/28 10:10:30;;;;;;;2.10;2.00;;;21.80;58.50;;;;;;5030018;28;20456;-49
2021/08/28 10:12:57;;;;;;;2.60;1.67;;;21.70;58.30;;;;;;5018973;28;20436;-50
2021/08/28 10:15:24;;;;;;;4.97;2.13;;;21.70;58.20;;;;;;5021459;28;20441;-50
2021/08/28 10:17:50;;;;;;;2.17;1.90;;;21.60;57.90;;;;;;5018776;28;20472;-51
2021/08/28 10:20:18;;;;;;;2.00;1.90;;;21.60;58.00;;;;;;5020717;28;20512;-46
2021/08/28 10:22:44;;;;;;;2.20;2.00;;;21.60;58.50;;;;;;5021107;28;20424;-51
2021/08/28 10:25:12;;;;;;;6.73;2.13;;;21.50;58.50;;;;;;5026049;28;20440;-47
2021/08/28 10:27:39;;;;;;;2.30;1.83;;;21.50;58.50;;;;;;5024495;28;20805;-47
2021/08/28 10:30:10;;;;;;;2.67;2.30;;;21.50;58.90;;;;;;5017745;28;21770;-46
2021/08/28 10:32:37;;;;;;;2.70;2.50;;;21.50;59.30;;;;;;5020893;28;20530;-50
2021/08/28 10:35:03;;;;;;;2.23;2.13;;;21.40;59.60;;;;;;5027814;28;20436;-46
2021/08/28 10:37:29;;;;;;;2.97;2.40;;;21.30;59.60;;;;;;5019022;28;20428;-50
2021/08/28 10:39:55;;;;;;;4.93;2.47;;;21.20;60.30;;;;;;5020100;28;20490;-48
2021/08/28 10:42:22;;;;;;;2.50;2.23;;;21.40;60.10;;;;;;5022819;28;20603;-50
2021/08/28 10:44:52;;;;;;;2.40;2.30;;;21.50;60.00;;;;;;5014415;28;20441;-50
2021/08/28 10:47:26;;;;;;;6.23;2.57;;;21.60;60.30;;;;;;5010966;28;20519;-46
2021/08/28 10:49:53;;;;;;;5.90;2.53;;;21.70;60.30;;;;;;5021993;28;20432;-47
2021/08/28 10:52:22;;;;;;;3.03;2.83;;;21.80;60.50;;;;;;5023172;28;20444;-50
2021/08/28 10:55:13;;;;;;;4.30;3.00;;;21.80;60.50;;;;;;5021320;28;20436;-51
2021/08/28 10:57:40;;;;;;;3.13;2.93;;;21.90;60.80;;;;;;5020487;28;20445;-50
2021/08/28 11:00:15;;;;;;;3.93;3.63;;;22.00;60.50;;;;;;5019043;28;20618;-50
2021/08/28 11:02:53;;;;;;;6.00;4.70;;;22.10;61.20;;;;;;5025230;28;20436;-51
2021/08/28 11:05:23;;;;;;;3.60;3.20;;;22.20;60.80;;;;;;5028737;28;20950;-48
2021/08/28 11:07:51;;;;;;;4.10;3.40;;;22.40;60.40;;;;;;5024477;28;20571;-47
2021/08/28 11:10:16;;;;;;;3.97;3.67;;;22.50;60.30;;;;;;5027804;28;20440;-51
2021/08/28 11:12:54;;;;;;;3.53;3.33;;;22.50;59.60;;;;;;5036372;28;20506;-46
2021/08/28 11:15:35;;;;;;;5.30;4.10;;;22.70;58.80;;;;;;5023573;28;20649;-50
2021/08/28 11:18:34;;;;;;;3.23;3.03;;;22.60;58.80;;;;;;5024159;28;20479;-50
2021/08/28 11:21:10;;;;;;;3.60;3.30;;;22.60;59.30;;;;;;5027246;28;20491;-46
2021/08/28 11:23:39;;;;;;;4.33;3.27;;;22.70;58.90;;;;;;5026679;28;20848;-48
2021/08/28 11:26:05;;;;;;;3.00;2.80;;;22.70;58.20;;;;;;5016738;28;20445;-50
2021/08/28 11:28:38;;;;;;;3.13;2.87;;;22.70;58.20;;;;;;5026003;28;20439;-49
2021/08/28 11:31:04;;;;;;;3.03;2.70;;;22.70;58.20;;;;;;5016561;28;20578;-50
2021/08/28 11:33:32;;;;;;;3.00;2.80;;;22.70;58.90;;;;;;5025613;28;20428;-48
2021/08/28 11:36:17;;;;;;;2.50;2.30;;;22.80;57.90;;;;;;5021701;28;20201;-50
2021/08/28 11:38:47;;;;;;;2.33;2.17;;;22.80;57.60;;;;;;5025327;28;20456;-46
2021/08/28 11:41:18;;;;;;;2.50;2.30;;;22.90;57.10;;;;;;5018526;28;20918;-50
2021/08/28 11:43:44;;;;;;;4.70;2.20;;;23.00;57.90;;;;;;5015956;28;20443;-51
2021/08/28 11:46:15;;;;;;;2.13;2.03;;;23.00;56.90;;;;;;5032891;28;20435;-46
2021/08/28 11:48:46;;;;;;;2.10;2.00;;;23.10;57.10;;;;;;5033952;28;20780;-51
2021/08/28 11:51:13;;;;;;;2.77;2.57;;;23.20;57.30;;;;;;5028809;28;20494;-50
2021/08/28 11:53:41;;;;;;;2.50;2.27;;;23.30;55.50;;;;;;5017949;28;20437;-48
2021/08/28 11:56:30;;;;;;;2.23;2.03;;;23.40;56.20;;;;;;5029001;28;20524;-45
2021/08/28 11:58:58;;;;;;;3.50;3.20;;;23.50;56.40;;;;;;5042694;28;20443;-51
2021/08/28 12:01:33;;;;;;;2.20;2.00;;;23.60;56.20;;;;;;5026534;28;20495;-46
2021/08/28 12:04:10;;;;;;;2.47;2.13;;;23.70;56.10;;;;;;5014878;28;20436;-48
2021/08/28 12:06:38;;;;;;;2.73;1.63;;;23.80;56.30;;;;;;5023744;28;20455;-50
2021/08/28 12:09:06;;;;;;;2.03;1.83;;;23.80;55.20;;;;;;5023403;28;20432;-46
2021/08/28 12:11:32;;;;;;;2.53;1.43;;;23.80;55.60;;;;;;5029154;28;20930;-49
2021/08/28 12:13:59;;;;;;;1.83;1.73;;;23.90;54.60;;;;;;5020723;28;20468;-47
2021/08/28 12:16:28;;;;;;;1.80;1.70;;;23.90;54.80;;;;;;5017232;28;20244;-51
2021/08/28 12:19:14;;;;;;;1.60;1.50;;;23.90;55.10;;;;;;5026526;28;20467;-49
2021/08/28 12:22:02;;;;;;;1.80;1.70;;;24.00;54.50;;;;;;5020556;28;20800;-47
2021/08/28 12:24:30;;;;;;;1.70;1.60;;;24.00;53.30;;;;;;5022447;28;20449;-47
2021/08/28 12:26:59;;;;;;;1.70;1.60;;;24.10;53.90;;;;;;5026427;28;20437;-50
2021/08/28 12:29:33;;;;;;;1.60;1.50;;;24.10;53.10;;;;;;5019873;28;20436;-51
2021/08/28 12:32:09;;;;;;;2.50;1.60;;;24.20;53.30;;;;;;5021916;28;20442;-49
2021/08/28 12:34:37;;;;;;;1.27;1.17;;;24.30;52.90;;;;;;5024259;28;20457;-47
2021/08/28 12:37:09;;;;;;;1.37;1.27;;;24.40;51.80;;;;;;5017785;28;20437;-48
2021/08/28 12:39:37;;;;;;;0.90;0.90;;;24.50;52.10;;;;;;5022923;28;20490;-47
2021/08/28 12:42:04;;;;;;;1.20;1.10;;;24.60;51.90;;;;;;5024089;28;20539;-46
2021/08/28 12:44:31;;;;;;;0.80;0.80;;;24.80;52.70;;;;;;5020610;28;20775;-51
2021/08/28 12:46:58;;;;;;;1.27;1.10;;;25.00;51.00;;;;;;5020831;28;20433;-46